Terminal Aerodrome Forecast
Issued by NWS

Home | Current Version | Previous Version | Text Only | Print | Product List | Glossary On
Versions: 1 2 3 4 5 6 7 8 9 10 11 12 13 14 15
000
FTUS43 KSGF 070500
TAFBBG
TAF
KBBG 070520Z 0706/0806 14005KT P6SM SCT150 OVC250
     FM070900 15010KT P6SM FEW060 OVC250 WS020/19035KT
     FM071400 17010KT P6SM VCSH BKN200 PROB30 0718/0724 5SM TSRA
      OVC040CB=

USA.gov is the U.S. government's official web portal to all federal, state and local government web resources and services.